sensor_id;sensor_type;location;lat;lon;timestamp;pressure;altitude;pressure_sealevel;temperature;humidity
78671;BME280;68277;52.724;6.516;2023-06-04T00:01:32;102309.63;;;12.09;58.15
78671;BME280;68277;52.724;6.516;2023-06-04T00:03:57;102329.94;;;12.16;59.04
78671;BME280;68277;52.724;6.516;2023-06-04T00:06:23;102329.06;;;12.14;59.91
78671;BME280;68277;52.724;6.516;2023-06-04T00:08:48;102311.47;;;11.98;59.29
78671;BME280;68277;52.724;6.516;2023-06-04T00:11:14;102329.09;;;12.08;61.48
78671;BME280;68277;52.724;6.516;2023-06-04T00:13:40;102308.78;;;11.97;59.65
78671;BME280;68277;52.724;6.516;2023-06-04T00:16:05;102318.53;;;12.01;59.10
78671;BME280;68277;52.724;6.516;2023-06-04T00:18:32;102313.22;;;11.98;59.10
78671;BME280;68277;52.724;6.516;2023-06-04T00:20:58;102327.34;;;12.01;59.05
78671;BME280;68277;52.724;6.516;2023-06-04T00:23:23;102302.66;;;11.86;59.55
78671;BME280;68277;52.724;6.516;2023-06-04T00:25:49;102317.66;;;11.96;59.20
78671;BME280;68277;52.724;6.516;2023-06-04T00:28:14;102331.81;;;11.93;59.43
78671;BME280;68277;52.724;6.516;2023-06-04T00:30:40;102299.19;;;11.72;59.17
78671;BME280;68277;52.724;6.516;2023-06-04T00:33:05;102288.59;;;11.61;59.76
78671;BME280;68277;52.724;6.516;2023-06-04T00:35:32;102322.13;;;11.80;59.70
78671;BME280;68277;52.724;6.516;2023-06-04T00:37:58;102323.91;;;11.83;59.63
78671;BME280;68277;52.724;6.516;2023-06-04T00:40:23;102312.44;;;11.72;59.62
78671;BME280;68277;52.724;6.516;2023-06-04T00:42:48;102310.66;;;11.66;60.12
78671;BME280;68277;52.724;6.516;2023-06-04T00:45:15;102295.72;;;11.51;60.58
78671;BME280;68277;52.724;6.516;2023-06-04T00:47:43;102302.78;;;11.48;60.88
78671;BME280;68277;52.724;6.516;2023-06-04T00:50:09;102311.63;;;11.51;60.94
78671;BME280;68277;52.724;6.516;2023-06-04T00:52:35;102304.53;;;11.43;61.97
78671;BME280;68277;52.724;6.516;2023-06-04T00:55:01;102294.88;;;11.34;60.85
78671;BME280;68277;52.724;6.516;2023-06-04T00:57:27;102319.56;;;11.42;60.98
78671;BME280;68277;52.724;6.516;2023-06-04T00:59:53;102332.81;;;11.51;60.66
78671;BME280;68277;52.724;6.516;2023-06-04T01:02:21;102309.00;;;11.35;60.99
78671;BME280;68277;52.724;6.516;2023-06-04T01:07:29;102300.16;;;11.31;62.80
78671;BME280;68277;52.724;6.516;2023-06-04T01:09:56;102321.34;;;11.40;60.34
78671;BME280;68277;52.724;6.516;2023-06-04T01:12:22;102318.72;;;11.31;61.63
78671;BME280;68277;52.724;6.516;2023-06-04T01:14:47;102339.03;;;11.32;63.45
78671;BME280;68277;52.724;6.516;2023-06-04T01:20:18;102339.06;;;11.23;62.75
78671;BME280;68277;52.724;6.516;2023-06-04T01:27:48;102312.56;;;11.04;63.40
78671;BME280;68277;52.724;6.516;2023-06-04T01:30:15;102295.78;;;10.95;63.11
78671;BME280;68277;52.724;6.516;2023-06-04T01:32:41;102329.34;;;11.15;63.26
78671;BME280;68277;52.724;6.516;2023-06-04T01:35:09;102295.81;;;10.89;62.84
78671;BME280;68277;52.724;6.516;2023-06-04T01:37:36;102303.75;;;10.85;66.29
78671;BME280;68277;52.724;6.516;2023-06-04T01:40:03;102317.00;;;10.92;65.35
78671;BME280;68277;52.724;6.516;2023-06-04T01:42:28;102328.47;;;10.99;62.95
78671;BME280;68277;52.724;6.516;2023-06-04T01:44:54;102300.25;;;10.83;63.75
78671;BME280;68277;52.724;6.516;2023-06-04T01:47:20;102310.81;;;10.83;62.89
78671;BME280;68277;52.724;6.516;2023-06-04T01:49:46;102298.47;;;10.71;63.82
78671;BME280;68277;52.724;6.516;2023-06-04T01:52:11;102290.53;;;10.67;64.32
78671;BME280;68277;52.724;6.516;2023-06-04T01:54:37;102312.56;;;10.79;64.06
78671;BME280;68277;52.724;6.516;2023-06-04T01:57:03;102322.31;;;10.85;71.83
78671;BME280;68277;52.724;6.516;2023-06-04T01:59:29;102315.22;;;10.75;64.14
78671;BME280;68277;52.724;6.516;2023-06-04T02:01:57;102304.66;;;10.64;63.19
78671;BME280;68277;52.724;6.516;2023-06-04T02:04:23;102322.28;;;10.77;65.32
78671;BME280;68277;52.724;6.516;2023-06-04T02:06:50;102292.28;;;10.53;64.28
78671;BME280;68277;52.724;6.516;2023-06-04T02:09:15;102328.47;;;10.70;64.05
78671;BME280;68277;52.724;6.516;2023-06-04T02:11:41;102320.50;;;10.67;65.54
78671;BME280;68277;52.724;6.516;2023-06-04T02:14:06;102308.16;;;10.59;64.55
78671;BME280;68277;52.724;6.516;2023-06-04T02:16:32;102309.03;;;10.61;63.55
78671;BME280;68277;52.724;6.516;2023-06-04T02:18:58;102328.47;;;10.64;67.16
78671;BME280;68277;52.724;6.516;2023-06-04T02:21:24;102334.63;;;10.59;64.70
78671;BME280;68277;52.724;6.516;2023-06-04T02:23:50;102312.53;;;10.46;67.59
78671;BME280;68277;52.724;6.516;2023-06-04T02:26:15;102316.97;;;10.43;66.01
78671;BME280;68277;52.724;6.516;2023-06-04T02:28:41;102316.94;;;10.40;65.63
78671;BME280;68277;52.724;6.516;2023-06-04T02:31:06;102314.31;;;10.29;66.46
78671;BME280;68277;52.724;6.516;2023-06-04T02:33:32;102324.00;;;10.35;66.25
78671;BME280;68277;52.724;6.516;2023-06-04T02:35:57;102304.56;;;10.23;65.52
78671;BME280;68277;52.724;6.516;2023-06-04T02:38:23;102286.84;;;10.10;67.11
78671;BME280;68277;52.724;6.516;2023-06-04T02:40:55;102328.38;;;10.25;66.08
78671;BME280;68277;52.724;6.516;2023-06-04T02:43:21;102314.19;;;10.11;69.14
78671;BME280;68277;52.724;6.516;2023-06-04T02:45:46;102308.91;;;10.08;67.99
78671;BME280;68277;52.724;6.516;2023-06-04T02:48:12;102315.09;;;10.05;72.01
78671;BME280;68277;52.724;6.516;2023-06-04T02:50:37;102318.59;;;10.04;69.02
78671;BME280;68277;52.724;6.516;2023-06-04T02:53:03;102330.13;;;10.14;67.21
78671;BME280;68277;52.724;6.516;2023-06-04T02:55:28;102323.88;;;10.06;68.70
78671;BME280;68277;52.724;6.516;2023-06-04T02:57:54;102308.84;;;9.94;67.53
78671;BME280;68277;52.724;6.516;2023-06-04T03:00:19;102326.50;;;10.01;67.63
78671;BME280;68277;52.724;6.516;2023-06-04T03:02:46;102337.13;;;10.07;67.97
78671;BME280;68277;52.724;6.516;2023-06-04T03:05:14;102292.06;;;9.82;69.06
78671;BME280;68277;52.724;6.516;2023-06-04T03:07:42;102293.84;;;9.81;68.52
78671;BME280;68277;52.724;6.516;2023-06-04T03:10:09;102279.72;;;9.75;68.09
78671;BME280;68277;52.724;6.516;2023-06-04T03:12:35;102321.22;;;9.98;68.70
78671;BME280;68277;52.724;6.516;2023-06-04T03:15:01;102323.84;;;9.97;68.24
78671;BME280;68277;52.724;6.516;2023-06-04T03:17:27;102292.94;;;9.76;68.48
78671;BME280;68277;52.724;6.516;2023-06-04T03:19:53;102305.31;;;9.86;68.13
78671;BME280;68277;52.724;6.516;2023-06-04T03:22:18;102321.22;;;9.94;67.96
78671;BME280;68277;52.724;6.516;2023-06-04T03:24:44;102320.28;;;9.92;69.23
78671;BME280;68277;52.724;6.516;2023-06-04T03:27:10;102307.06;;;9.86;70.20
78671;BME280;68277;52.724;6.516;2023-06-04T03:29:39;102286.75;;;9.73;69.34
78671;BME280;68277;52.724;6.516;2023-06-04T03:32:06;102309.72;;;9.90;69.25
78671;BME280;68277;52.724;6.516;2023-06-04T03:34:32;102277.09;;;9.79;69.58
78671;BME280;68277;52.724;6.516;2023-06-04T03:36:58;102285.03;;;9.90;69.37
78671;BME280;68277;52.724;6.516;2023-06-04T03:39:26;102312.44;;;10.07;69.83
78671;BME280;68277;52.724;6.516;2023-06-04T03:41:51;102289.47;;;10.00;68.67
78671;BME280;68277;52.724;6.516;2023-06-04T03:44:21;102293.00;;;10.02;69.24
78671;BME280;68277;52.724;6.516;2023-06-04T03:46:47;102320.44;;;10.19;73.91
78671;BME280;68277;52.724;6.516;2023-06-04T03:49:14;102308.94;;;10.15;68.95
78671;BME280;68277;52.724;6.516;2023-06-04T03:51:43;102291.28;;;10.10;70.39
78671;BME280;68277;52.724;6.516;2023-06-04T03:54:09;102313.38;;;10.22;69.37
78671;BME280;68277;52.724;6.516;2023-06-04T03:56:36;102317.81;;;10.29;73.39
78671;BME280;68277;52.724;6.516;2023-06-04T03:59:01;102257.72;;;9.97;70.26
78671;BME280;68277;52.724;6.516;2023-06-04T04:01:27;102297.50;;;10.18;69.27
78671;BME280;68277;52.724;6.516;2023-06-04T04:03:54;102308.13;;;10.28;70.51
78671;BME280;68277;52.724;6.516;2023-06-04T04:06:21;102306.38;;;10.34;70.91
78671;BME280;68277;52.724;6.516;2023-06-04T04:08:46;102275.47;;;10.14;69.32
78671;BME280;68277;52.724;6.516;2023-06-04T04:11:18;102304.59;;;10.32;70.07
78671;BME280;68277;52.724;6.516;2023-06-04T04:13:45;102277.22;;;10.18;69.33
78671;BME280;68277;52.724;6.516;2023-06-04T04:16:12;102289.59;;;10.30;72.71
78671;BME280;68277;52.724;6.516;2023-06-04T04:18:37;102293.13;;;10.32;76.10
78671;BME280;68277;52.724;6.516;2023-06-04T04:21:03;102271.06;;;10.19;71.15
78671;BME280;68277;52.724;6.516;2023-06-04T04:23:30;102319.63;;;10.43;70.71
78671;BME280;68277;52.724;6.516;2023-06-04T04:25:58;102311.69;;;10.43;71.48
78671;BME280;68277;52.724;6.516;2023-06-04T04:28:27;102311.69;;;10.43;70.38
78671;BME280;68277;52.724;6.516;2023-06-04T04:30:55;102305.50;;;10.41;70.97
78671;BME280;68277;52.724;6.516;2023-06-04T04:33:22;102312.56;;;10.52;70.63
78671;BME280;68277;52.724;6.516;2023-06-04T04:35:51;102321.38;;;10.60;72.64
78671;BME280;68277;52.724;6.516;2023-06-04T04:38:20;102284.34;;;10.57;70.12
78671;BME280;68277;52.724;6.516;2023-06-04T04:40:53;102331.03;;;11.61;73.07
78671;BME280;68277;52.724;6.516;2023-06-04T04:43:32;102317.56;;;12.20;67.58
78671;BME280;68277;52.724;6.516;2023-06-04T04:46:01;102308.66;;;12.22;68.00
78671;BME280;68277;52.724;6.516;2023-06-04T04:48:27;102312.88;;;12.57;69.83
78671;BME280;68277;52.724;6.516;2023-06-04T04:50:53;102308.25;;;12.81;70.29
78671;BME280;68277;52.724;6.516;2023-06-04T04:53:19;102293.25;;;12.74;68.34
78671;BME280;68277;52.724;6.516;2023-06-04T04:55:45;102288.06;;;12.59;68.49
78671;BME280;68277;52.724;6.516;2023-06-04T04:58:11;102272.34;;;12.30;69.84
78671;BME280;68277;52.724;6.516;2023-06-04T05:00:38;102314.69;;;12.50;71.19
78671;BME280;68277;52.724;6.516;2023-06-04T05:03:03;102292.22;;;12.92;69.71
78671;BME280;68277;52.724;6.516;2023-06-04T05:05:29;102304.06;;;13.50;67.68
78671;BME280;68277;52.724;6.516;2023-06-04T05:07:54;102313.88;;;13.47;67.14
78671;BME280;68277;52.724;6.516;2023-06-04T05:10:26;102298.28;;;13.11;68.39
78671;BME280;68277;52.724;6.516;2023-06-04T05:12:53;102307.94;;;13.19;68.98
78671;BME280;68277;52.724;6.516;2023-06-04T05:15:20;102317.19;;;13.67;68.25
78671;BME280;68277;52.724;6.516;2023-06-04T05:17:47;102312.81;;;14.30;65.85
78671;BME280;68277;52.724;6.516;2023-06-04T05:20:14;102290.06;;;14.05;66.18
78671;BME280;68277;52.724;6.516;2023-06-04T05:22:43;102293.81;;;13.92;66.96
78671;BME280;68277;52.724;6.516;2023-06-04T05:25:09;102290.63;;;14.29;66.05
78671;BME280;68277;52.724;6.516;2023-06-04T05:27:35;102297.19;;;14.65;64.50
78671;BME280;68277;52.724;6.516;2023-06-04T05:30:02;102307.66;;;14.79;64.15
78671;BME280;68277;52.724;6.516;2023-06-04T05:32:29;102281.38;;;14.53;64.79
78671;BME280;68277;52.724;6.516;2023-06-04T05:34:58;102307.09;;;14.57;65.22
78671;BME280;68277;52.724;6.516;2023-06-04T05:37:27;102316.94;;;14.52;66.32
78671;BME280;68277;52.724;6.516;2023-06-04T05:39:55;102286.53;;;14.65;65.38
78671;BME280;68277;52.724;6.516;2023-06-04T05:42:23;102263.69;;;15.50;63.03
78671;BME280;68277;52.724;6.516;2023-06-04T05:44:49;102268.16;;;15.91;61.85
78671;BME280;68277;52.724;6.516;2023-06-04T05:47:17;102293.56;;;16.85;59.45
78671;BME280;68277;52.724;6.516;2023-06-04T05:49:44;102308.75;;;17.18;58.95
78671;BME280;68277;52.724;6.516;2023-06-04T05:52:10;102304.53;;;17.09;58.93
78671;BME280;68277;52.724;6.516;2023-06-04T05:54:35;102308.75;;;17.50;58.14
78671;BME280;68277;52.724;6.516;2023-06-04T05:57:04;102305.56;;;18.30;55.62
78671;BME280;68277;52.724;6.516;2023-06-04T05:59:29;102285.69;;;18.08;55.32
78671;BME280;68277;52.724;6.516;2023-06-04T06:01:56;102309.41;;;17.28;58.32
78671;BME280;68277;52.724;6.516;2023-06-04T06:04:22;102289.78;;;16.18;61.58
78671;BME280;68277;52.724;6.516;2023-06-04T06:06:47;102324.97;;;15.97;62.72
78671;BME280;68277;52.724;6.516;2023-06-04T06:09:14;102326.09;;;15.87;63.08
78671;BME280;68277;52.724;6.516;2023-06-04T06:11:41;102322.84;;;16.54;61.20
78671;BME280;68277;52.724;6.516;2023-06-04T06:14:07;102293.03;;;16.71;59.62
78671;BME280;68277;52.724;6.516;2023-06-04T06:16:33;102313.34;;;16.39;61.54
78671;BME280;68277;52.724;6.516;2023-06-04T06:19:00;102279.53;;;16.77;60.07
78671;BME280;68277;52.724;6.516;2023-06-04T06:21:25;102321.44;;;18.36;55.89
78671;BME280;68277;52.724;6.516;2023-06-04T06:23:51;102297.59;;;17.68;57.06
78671;BME280;68277;52.724;6.516;2023-06-04T06:26:17;102314.00;;;17.55;58.54
78671;BME280;68277;52.724;6.516;2023-06-04T06:28:47;102310.78;;;17.74;57.29
78671;BME280;68277;52.724;6.516;2023-06-04T06:31:15;102310.28;;;16.94;59.51
78671;BME280;68277;52.724;6.516;2023-06-04T06:33:40;102308.44;;;16.21;62.09
78671;BME280;68277;52.724;6.516;2023-06-04T06:36:07;102323.84;;;16.09;62.53
78671;BME280;68277;52.724;6.516;2023-06-04T06:38:34;102323.13;;;16.40;61.56
78671;BME280;68277;52.724;6.516;2023-06-04T06:41:00;102322.50;;;16.29;61.94
78671;BME280;68277;52.724;6.516;2023-06-04T06:43:25;102299.63;;;16.91;59.38
78671;BME280;68277;52.724;6.516;2023-06-04T06:45:51;102306.72;;;17.28;57.71
78671;BME280;68277;52.724;6.516;2023-06-04T06:48:16;102325.75;;;17.49;57.83
78671;BME280;68277;52.724;6.516;2023-06-04T06:50:42;102331.06;;;17.17;58.11
78671;BME280;68277;52.724;6.516;2023-06-04T06:53:07;102313.22;;;16.46;59.52
78671;BME280;68277;52.724;6.516;2023-06-04T06:55:33;102326.97;;;16.27;60.10
78671;BME280;68277;52.724;6.516;2023-06-04T06:57:59;102331.47;;;16.25;60.05
78671;BME280;68277;52.724;6.516;2023-06-04T07:00:26;102331.84;;;16.10;60.73
78671;BME280;68277;52.724;6.516;2023-06-04T07:02:53;102328.13;;;16.16;60.91
78671;BME280;68277;52.724;6.516;2023-06-04T07:05:19;102311.72;;;16.32;59.94
78671;BME280;68277;52.724;6.516;2023-06-04T07:07:45;102344.81;;;17.37;58.43
78671;BME280;68277;52.724;6.516;2023-06-04T07:10:11;102337.06;;;18.79;53.71
78671;BME280;68277;52.724;6.516;2023-06-04T07:12:38;102336.97;;;19.08;52.67
78671;BME280;68277;52.724;6.516;2023-06-04T07:15:05;102330.19;;;18.70;53.72
78671;BME280;68277;52.724;6.516;2023-06-04T07:17:31;102347.44;;;18.03;55.65
78671;BME280;68277;52.724;6.516;2023-06-04T07:19:56;102334.75;;;17.45;57.38
78671;BME280;68277;52.724;6.516;2023-06-04T07:22:22;102320.22;;;17.23;57.72
78671;BME280;68277;52.724;6.516;2023-06-04T07:24:51;102325.00;;;17.10;58.26
78671;BME280;68277;52.724;6.516;2023-06-04T07:27:17;102331.06;;;17.17;58.59
78671;BME280;68277;52.724;6.516;2023-06-04T07:29:44;102360.44;;;17.20;58.38
78671;BME280;68277;52.724;6.516;2023-06-04T07:32:10;102336.66;;;17.08;58.14
78671;BME280;68277;52.724;6.516;2023-06-04T07:34:35;102354.69;;;17.35;58.40
78671;BME280;68277;52.724;6.516;2023-06-04T07:37:02;102321.00;;;17.27;58.58
78671;BME280;68277;52.724;6.516;2023-06-04T07:39:28;102344.50;;;17.48;57.61
78671;BME280;68277;52.724;6.516;2023-06-04T07:41:53;102327.09;;;17.33;56.61
78671;BME280;68277;52.724;6.516;2023-06-04T07:44:19;102331.50;;;17.34;57.08
78671;BME280;68277;52.724;6.516;2023-06-04T07:46:46;102358.66;;;17.87;56.27
78671;BME280;68277;52.724;6.516;2023-06-04T07:49:11;102348.25;;;18.36;54.92
78671;BME280;68277;52.724;6.516;2023-06-04T07:51:37;102344.75;;;19.16;53.18
78671;BME280;68277;52.724;6.516;2023-06-04T07:54:03;102353.28;;;19.54;52.21
78671;BME280;68277;52.724;6.516;2023-06-04T07:56:28;102354.69;;;19.40;51.43
78671;BME280;68277;52.724;6.516;2023-06-04T07:58:54;102350.25;;;21.01;47.66
78671;BME280;68277;52.724;6.516;2023-06-04T08:01:20;102335.63;;;21.50;45.87
78671;BME280;68277;52.724;6.516;2023-06-04T08:03:47;102340.31;;;21.65;45.51
78671;BME280;68277;52.724;6.516;2023-06-04T08:06:12;102334.53;;;21.54;45.74
78671;BME280;68277;52.724;6.516;2023-06-04T08:08:43;102312.84;;;20.73;46.41
78671;BME280;68277;52.724;6.516;2023-06-04T08:11:16;102343.00;;;20.60;46.19
78671;BME280;68277;52.724;6.516;2023-06-04T08:13:41;102322.72;;;20.05;47.16
78671;BME280;68277;52.724;6.516;2023-06-04T08:16:08;102355.75;;;19.60;48.68
78671;BME280;68277;52.724;6.516;2023-06-04T08:18:41;102352.31;;;19.31;49.90
78671;BME280;68277;52.724;6.516;2023-06-04T08:21:09;102322.69;;;19.07;49.99
78671;BME280;68277;52.724;6.516;2023-06-04T08:23:36;102350.53;;;19.30;50.75
78671;BME280;68277;52.724;6.516;2023-06-04T08:26:06;102359.91;;;19.69;50.41
78671;BME280;68277;52.724;6.516;2023-06-04T08:28:33;102352.91;;;19.88;50.03
78671;BME280;68277;52.724;6.516;2023-06-04T08:30:58;102336.06;;;20.08;48.55
78671;BME280;68277;52.724;6.516;2023-06-04T08:33:23;102322.63;;;19.85;48.61
78671;BME280;68277;52.724;6.516;2023-06-04T08:35:49;102344.22;;;19.82;48.29
78671;BME280;68277;52.724;6.516;2023-06-04T08:38:14;102322.59;;;19.61;48.98
78671;BME280;68277;52.724;6.516;2023-06-04T08:40:40;102354.88;;;19.85;48.87
78671;BME280;68277;52.724;6.516;2023-06-04T08:43:05;102342.88;;;19.93;48.87
78671;BME280;68277;52.724;6.516;2023-06-04T08:45:32;102319.69;;;20.14;47.58
78671;BME280;68277;52.724;6.516;2023-06-04T08:47:58;102324.78;;;20.21;47.63
78671;BME280;68277;52.724;6.516;2023-06-04T08:50:25;102333.56;;;20.71;45.84
78671;BME280;68277;52.724;6.516;2023-06-04T08:52:55;102341.16;;;21.03;46.59
78671;BME280;68277;52.724;6.516;2023-06-04T08:55:21;102350.84;;;21.09;46.56
78671;BME280;68277;52.724;6.516;2023-06-04T08:57:49;102352.72;;;20.85;45.12
78671;BME280;68277;52.724;6.516;2023-06-04T09:00:15;102328.25;;;20.91;45.90
78671;BME280;68277;52.724;6.516;2023-06-04T09:02:42;102356.09;;;21.34;43.68
78671;BME280;68277;52.724;6.516;2023-06-04T09:05:17;102327.78;;;21.02;42.84
78671;BME280;68277;52.724;6.516;2023-06-04T09:07:45;102354.72;;;21.24;43.00
78671;BME280;68277;52.724;6.516;2023-06-04T09:10:16;102320.72;;;21.41;41.75
78671;BME280;68277;52.724;6.516;2023-06-04T09:12:43;102326.03;;;21.83;40.67
78671;BME280;68277;52.724;6.516;2023-06-04T09:15:11;102334.72;;;21.90;40.04
78671;BME280;68277;52.724;6.516;2023-06-04T09:17:36;102321.13;;;22.11;40.49
78671;BME280;68277;52.724;6.516;2023-06-04T09:20:02;102309.94;;;22.00;40.95
78671;BME280;68277;52.724;6.516;2023-06-04T09:22:36;102334.38;;;21.77;39.78
78671;BME280;68277;52.724;6.516;2023-06-04T09:25:05;102342.59;;;21.74;41.79
78671;BME280;68277;52.724;6.516;2023-06-04T09:27:42;102324.81;;;21.70;40.77
78671;BME280;68277;52.724;6.516;2023-06-04T09:30:08;102344.22;;;21.58;41.04
78671;BME280;68277;52.724;6.516;2023-06-04T09:32:36;102331.16;;;21.49;41.73
78671;BME280;68277;52.724;6.516;2023-06-04T09:35:12;102343.28;;;21.59;40.02
78671;BME280;68277;52.724;6.516;2023-06-04T09:37:42;102339.78;;;21.57;40.99
78671;BME280;68277;52.724;6.516;2023-06-04T09:40:09;102336.13;;;21.58;41.37
78671;BME280;68277;52.724;6.516;2023-06-04T09:42:43;102321.84;;;21.96;39.40
78671;BME280;68277;52.724;6.516;2023-06-04T09:45:09;102331.97;;;22.28;42.13
78671;BME280;68277;52.724;6.516;2023-06-04T09:47:44;102310.03;;;22.55;39.51
78671;BME280;68277;52.724;6.516;2023-06-04T09:50:11;102342.41;;;22.73;37.69
78671;BME280;68277;52.724;6.516;2023-06-04T09:52:37;102320.16;;;22.68;39.73
78671;BME280;68277;52.724;6.516;2023-06-04T09:55:15;102332.41;;;22.94;38.95
78671;BME280;68277;52.724;6.516;2023-06-04T09:57:49;102345.91;;;22.94;38.21
78671;BME280;68277;52.724;6.516;2023-06-04T10:00:23;102323.16;;;22.81;36.27
78671;BME280;68277;52.724;6.516;2023-06-04T10:03:01;102348.31;;;22.81;36.24
78671;BME280;68277;52.724;6.516;2023-06-04T10:05:31;102343.00;;;22.80;36.08
78671;BME280;68277;52.724;6.516;2023-06-04T10:08:00;102339.47;;;22.78;34.96
78671;BME280;68277;52.724;6.516;2023-06-04T10:10:28;102343.88;;;22.62;35.01
78671;BME280;68277;52.724;6.516;2023-06-04T10:13:00;102339.72;;;22.73;35.44
78671;BME280;68277;52.724;6.516;2023-06-04T10:15:28;102327.75;;;22.79;35.56
78671;BME280;68277;52.724;6.516;2023-06-04T10:17:55;102335.31;;;22.89;35.63
78671;BME280;68277;52.724;6.516;2023-06-04T10:20:21;102325.13;;;22.77;36.39
78671;BME280;68277;52.724;6.516;2023-06-04T10:22:47;102319.97;;;22.73;34.55
78671;BME280;68277;52.724;6.516;2023-06-04T10:25:13;102345.66;;;22.63;35.03
78671;BME280;68277;52.724;6.516;2023-06-04T10:27:40;102315.00;;;22.45;34.45
78671;BME280;68277;52.724;6.516;2023-06-04T10:30:06;102340.72;;;22.52;34.58
78671;BME280;68277;52.724;6.516;2023-06-04T10:32:33;102339.13;;;22.48;35.13
78671;BME280;68277;52.724;6.516;2023-06-04T10:35:06;102352.84;;;22.81;34.93
78671;BME280;68277;52.724;6.516;2023-06-04T10:37:33;102354.84;;;22.77;35.13
78671;BME280;68277;52.724;6.516;2023-06-04T10:40:00;102354.84;;;22.77;35.24
78671;BME280;68277;52.724;6.516;2023-06-04T10:42:26;102342.78;;;23.01;35.50
78671;BME280;68277;52.724;6.516;2023-06-04T10:44:53;102347.59;;;23.31;34.85
78671;BME280;68277;52.724;6.516;2023-06-04T10:47:27;102340.38;;;23.31;35.27
78671;BME280;68277;52.724;6.516;2023-06-04T10:50:10;102351.59;;;23.58;35.08
78671;BME280;68277;52.724;6.516;2023-06-04T10:52:36;102339.50;;;23.65;35.13
78671;BME280;68277;52.724;6.516;2023-06-04T10:55:09;102343.47;;;23.58;35.48
78671;BME280;68277;52.724;6.516;2023-06-04T10:57:34;102342.19;;;23.65;35.98
78671;BME280;68277;52.724;6.516;2023-06-04T11:00:01;102335.03;;;23.81;36.38
78671;BME280;68277;52.724;6.516;2023-06-04T11:02:31;102331.34;;;23.82;36.65
78671;BME280;68277;52.724;6.516;2023-06-04T11:05:03;102358.63;;;24.12;36.38
78671;BME280;68277;52.724;6.516;2023-06-04T11:07:45;102332.09;;;23.86;35.67
78671;BME280;68277;52.724;6.516;2023-06-04T11:10:15;102323.91;;;23.70;35.96
78671;BME280;68277;52.724;6.516;2023-06-04T11:12:48;102319.75;;;23.80;35.56
78671;BME280;68277;52.724;6.516;2023-06-04T11:15:17;102327.84;;;23.97;35.68
78671;BME280;68277;52.724;6.516;2023-06-04T11:17:53;102305.56;;;23.92;33.87
78671;BME280;68277;52.724;6.516;2023-06-04T11:20:19;102320.84;;;24.26;35.20
78671;BME280;68277;52.724;6.516;2023-06-04T11:22:53;102260.66;;;23.90;31.58
78671;BME280;68277;52.724;6.516;2023-06-04T11:25:19;102306.78;;;24.19;33.95
78671;BME280;68277;52.724;6.516;2023-06-04T11:27:47;102298.09;;;23.97;33.86
78671;BME280;68277;52.724;6.516;2023-06-04T11:30:13;102312.84;;;24.07;33.72
78671;BME280;68277;52.724;6.516;2023-06-04T11:32:39;102317.16;;;24.42;33.11
78671;BME280;68277;52.724;6.516;2023-06-04T11:35:05;102293.50;;;24.15;33.40
78671;BME280;68277;52.724;6.516;2023-06-04T11:37:32;102321.44;;;24.31;33.85
78671;BME280;68277;52.724;6.516;2023-06-04T11:39:58;102301.03;;;24.41;33.19
78671;BME280;68277;52.724;6.516;2023-06-04T11:42:27;102315.88;;;24.34;33.56
78671;BME280;68277;52.724;6.516;2023-06-04T11:44:56;102320.75;;;24.27;33.14
78671;BME280;68277;52.724;6.516;2023-06-04T11:47:24;102319.88;;;24.11;33.67
78671;BME280;68277;52.724;6.516;2023-06-04T11:49:56;102311.50;;;24.31;32.78
78671;BME280;68277;52.724;6.516;2023-06-04T11:52:23;102303.75;;;24.25;33.54
78671;BME280;68277;52.724;6.516;2023-06-04T11:54:49;102317.16;;;24.42;32.79
78671;BME280;68277;52.724;6.516;2023-06-04T11:57:15;102319.44;;;24.50;33.37
78671;BME280;68277;52.724;6.516;2023-06-04T11:59:40;102276.00;;;24.37;32.41
78671;BME280;68277;52.724;6.516;2023-06-04T12:02:07;102303.91;;;24.54;32.66
78671;BME280;68277;52.724;6.516;2023-06-04T12:04:33;102307.50;;;24.38;32.47
78671;BME280;68277;52.724;6.516;2023-06-04T12:07:00;102288.75;;;24.03;32.18
78671;BME280;68277;52.724;6.516;2023-06-04T12:09:28;102307.66;;;24.20;32.43
78671;BME280;68277;52.724;6.516;2023-06-04T12:12:04;102303.75;;;24.25;32.73
78671;BME280;68277;52.724;6.516;2023-06-04T12:14:30;102294.13;;;24.51;32.84
78671;BME280;68277;52.724;6.516;2023-06-04T12:17:06;102291.06;;;24.73;31.15
78671;BME280;68277;52.724;6.516;2023-06-04T12:19:32;102290.28;;;24.55;31.66
78671;BME280;68277;52.724;6.516;2023-06-04T12:22:01;102308.38;;;24.23;31.30
78671;BME280;68277;52.724;6.516;2023-06-04T12:24:27;102259.44;;;23.95;31.46
78671;BME280;68277;52.724;6.516;2023-06-04T12:27:01;102292.56;;;24.16;31.64
78671;BME280;68277;52.724;6.516;2023-06-04T12:29:27;102298.59;;;24.36;31.63
78671;BME280;68277;52.724;6.516;2023-06-04T12:32:01;102304.69;;;24.24;30.92
78671;BME280;68277;52.724;6.516;2023-06-04T12:34:27;102292.09;;;24.08;31.79
78671;BME280;68277;52.724;6.516;2023-06-04T12:36:52;102276.06;;;24.20;31.78
78671;BME280;68277;52.724;6.516;2023-06-04T12:39:18;102258.44;;;24.13;31.06
78671;BME280;68277;52.724;6.516;2023-06-04T12:41:46;102287.84;;;24.19;31.02
78671;BME280;68277;52.724;6.516;2023-06-04T12:44:12;102280.44;;;24.23;31.04
78671;BME280;68277;52.724;6.516;2023-06-04T12:46:39;102304.00;;;24.52;31.08
78671;BME280;68277;52.724;6.516;2023-06-04T12:49:04;102277.47;;;24.59;31.21
78671;BME280;68277;52.724;6.516;2023-06-04T12:51:30;102303.13;;;24.83;29.96
78671;BME280;68277;52.724;6.516;2023-06-04T12:53:57;102296.25;;;24.77;30.81
78671;BME280;68277;52.724;6.516;2023-06-04T12:56:23;102272.72;;;24.62;30.93
78671;BME280;68277;52.724;6.516;2023-06-04T12:58:48;102271.50;;;24.83;30.50
78671;BME280;68277;52.724;6.516;2023-06-04T13:01:14;102278.66;;;24.84;30.57